Aérodrome :
LOGIN :

S'inscrire | Disclaimer

   EN    FR    IT 

 










Légende :    VFR   VFR Marginal   IFR   IFR Intensif   IFR Très Intensif
Visi : 
Plafond : 
>= 8 km
>= 3000ft
5 à 8 km
1000 à 3000 ft
1500m à 5 km
500 à 1000 ft
800 à 1500m
200 à 500 ft
< 800m
< 200 ft
Symboles :   Orages  Brouillard  Fortes neiges  Fortes précipitations  Vent > 20 kt
SIGMETs :   Divers  Orages  Givrage  Turbulence  Onde Orograph.  Cendres Volcan.







- Altitude de l'aérodrome : 1742 ft
- Code IATA : SOF


LBSF - Sofia Int.

DERNIER METAR :
  • 170400Z 09003KT CAVOK 09/06 Q1017 NOSIG

METARs EXPIRÉS :
  • 170330Z 07003KT CAVOK 09/06 Q1017 NOSIG
  • 170300Z 10003KT CAVOK 10/05 Q1017 NOSIG
  • 170230Z VRB02KT CAVOK 09/05 Q1017 NOSIG
  • 170200Z VRB02KT CAVOK 10/06 Q1017 NOSIG
  • 170130Z 15004KT 060V160 CAVOK 10/05 Q1017 NOSIG

TAF TAF LBSF
Valide du 17 à 00h jusqu'au 18 à 00h UTC


162300Z 1700/1724 VRB04KT CAVOK
BECMG 1712/1714 27010KT
Pas de NOTAMs connus pour ce terrain.



MET'MAP, la Météo Aéronautique d'un coup d'oeil ! - Copyright ORBIFLY Décembre 2007 - Disclaimer

ORBIFLY MET'MAP TEAM :

Programmation & Développement : Alexandra Zaïnal
Conception & Développement : Baudouin d'Aumeries
Co-Programmation & Développement : Marc-Olivier Méhu
Soutien technique & logistique : Manuel Goepfert

Contact : metmap@orbifly.com




SOURCES & CREDITS :

   NOAA